Time;durP1;ratioP1;P1;durP2;ratioP2;P2;SDS_P1;SDS_P2;PMS_P1;PMS_P2;Temp;Humidity;BMP_temperature;BMP_pressure;BME280_temperature;BME280_humidity;BME280_pressure;Samples;Min_cycle;Max_cycle;Signal;HPM_P1;HPM_P2
2022/06/16 00:00:42;;;;;;;9.48;5.10;;;;;;;14.80;100.00;101050.10;1716401;83;21552;-85
2022/06/16 00:03:11;;;;;;;8.80;4.67;;;;;;;14.77;100.00;101050.36;1716542;83;21050;-86
2022/06/16 00:05:43;;;;;;;7.62;4.97;;;;;;;14.73;100.00;101056.84;1716723;83;20940;-85
2022/06/16 00:08:13;;;;;;;;;;;;;;;14.72;100.00;101056.48;1719137;83;21796;-86
2022/06/16 00:11:16;;;;;;;7.83;5.70;;;;;;;14.69;100.00;101051.49;1768336;81;20177;-86
2022/06/16 00:13:11;;;;;;;10.75;6.47;;;;;;;14.65;100.00;101056.98;1768881;81;21060;-87
2022/06/16 00:15:39;;;;;;;13.22;7.28;;;;;;;14.62;100.00;101059.04;1769786;81;22194;-86
2022/06/16 00:18:08;;;;;;;14.03;7.75;;;;;;;14.59;100.00;101054.05;1769647;81;21096;-86
2022/06/16 00:20:36;;;;;;;14.80;8.30;;;;;;;14.54;100.00;101061.48;1769993;81;21145;-88
2022/06/16 00:23:03;;;;;;;16.32;7.80;;;;;;;14.48;100.00;101049.23;1770052;81;21589;-88
2022/06/16 00:25:32;;;;;;;12.73;7.72;;;;;;;14.44;100.00;101053.55;1769844;81;21802;-88
2022/06/16 00:28:01;;;;;;;10.88;7.60;;;;;;;14.40;100.00;101052.98;1769381;81;21350;-86
2022/06/16 00:30:28;;;;;;;12.63;7.33;;;;;;;14.37;100.00;101055.88;1739275;81;21514;-86
2022/06/16 00:32:57;;;;;;;13.72;6.92;;;;;;;14.35;100.00;101053.86;1769643;81;21034;-86
2022/06/16 00:35:25;;;;;;;14.30;7.37;;;;;;;14.32;100.00;101052.80;1769406;81;21440;-85
2022/06/16 00:37:53;;;;;;;11.22;7.28;;;;;;;14.28;100.00;101049.61;1769588;81;21100;-85
2022/06/16 00:40:20;;;;;;;13.32;7.55;;;;;;;14.24;100.00;101051.30;1769958;81;21093;-85
2022/06/16 00:42:48;;;;;;;11.88;7.92;;;;;;;14.16;100.00;101058.51;1769737;81;21084;-85
2022/06/16 00:45:58;;;;;;;13.40;7.33;;;;;;;14.11;100.00;101060.66;1769609;81;21272;-86
2022/06/16 00:48:51;;;;;;;12.47;7.12;;;;;;;13.97;100.00;101058.71;1737390;81;21030;-88
2022/06/16 00:51:35;;;;;;;12.25;6.85;;;;;;;13.78;100.00;101063.33;1769300;81;21010;-87
2022/06/16 00:54:08;;;;;;;13.30;6.10;;;;;;;13.60;100.00;101068.28;1761082;81;21085;-87
2022/06/16 00:56:37;;;;;;;10.35;5.50;;;;;;;13.50;100.00;101068.66;1801523;79;21081;-87
2022/06/16 00:59:07;;;;;;;6.83;4.70;;;;;;;13.41;100.00;101069.75;1801511;79;21227;-87
2022/06/16 01:01:38;;;;;;;7.78;5.30;;;;;;;13.36;100.00;101073.19;1801401;79;21045;-89
2022/06/16 01:06:57;;;;;;;5.97;4.20;;;;;;;13.41;100.00;101076.78;1801598;78;20987;-87
2022/06/16 01:09:32;;;;;;;7.85;4.50;;;;;;;13.43;100.00;101081.39;1755435;81;21007;-86
2022/06/16 01:15:22;;;;;;;5.95;3.72;;;;;;;13.50;100.00;101081.73;1718399;82;21004;-89
2022/06/16 01:18:19;;;;;;;7.22;3.80;;;;;;;13.58;100.00;101088.98;1707317;83;21591;-86
2022/06/16 01:21:13;;;;;;;5.78;3.35;;;;;;;13.62;100.00;101087.77;1718262;83;21031;-90
2022/06/16 01:24:34;;;;;;;5.85;3.20;;;;;;;13.64;100.00;101084.56;1704524;82;21542;-87
2022/06/16 01:27:49;;;;;;;4.42;3.02;;;;;;;13.65;100.00;101083.61;1718113;82;21178;-87
2022/06/16 01:30:21;;;;;;;5.00;3.10;;;;;;;13.67;100.00;101088.22;1707863;82;21083;-87
2022/06/16 01:33:06;;;;;;;5.42;2.72;;;;;;;13.67;100.00;101088.22;1715759;83;20961;-87
2022/06/16 01:35:47;;;;;;;4.83;3.20;;;;;;;13.62;100.00;101090.38;1705426;82;21033;-87
2022/06/16 01:38:29;;;;;;;3.52;2.70;;;;;;;13.56;100.00;101094.32;1715564;83;21094;-86
2022/06/16 01:41:05;;;;;;;3.58;2.83;;;;;;;13.50;100.00;101093.51;1706733;82;21835;-87
2022/06/16 01:43:38;;;;;;;5.78;3.00;;;;;;;13.44;100.00;101103.98;1712244;83;21059;-89
2022/06/16 01:46:26;;;;;;;5.10;2.77;;;;;;;13.43;100.00;101106.23;1701976;82;21046;-87
2022/06/16 01:49:09;;;;;;;4.70;3.00;;;;;;;13.44;100.00;101107.91;1716560;83;21596;-87
2022/06/16 01:51:51;;;;;;;4.20;2.90;;;;;;;13.43;100.00;101109.34;1703957;82;26387;-88
2022/06/16 01:54:24;;;;;;;;;;;;;;;13.41;100.00;101113.39;1718269;83;21151;-87
2022/06/16 01:57:02;;;;;;;5.90;2.58;;;;;;;13.40;100.00;101113.04;1718297;82;20476;-87
2022/06/16 01:59:41;;;;;;;4.05;2.60;;;;;;;13.39;100.00;101108.27;1704896;82;21117;-87
2022/06/16 02:02:16;;;;;;;3.45;2.80;;;;;;;13.38;100.00;101113.59;1718372;82;21036;-89
2022/06/16 02:04:51;;;;;;;6.05;2.72;;;;;;;13.33;100.00;101113.14;1704837;82;21006;-88
2022/06/16 02:07:24;;;;;;;4.12;2.90;;;;;;;13.27;100.00;101114.45;1716649;83;21346;-87
2022/06/16 02:09:56;;;;;;;3.30;2.80;;;;;;;13.19;100.00;101115.03;1682664;83;20990;-87
2022/06/16 02:15:22;;;;;;;6.65;2.70;;;;;;;13.12;100.00;101124.31;1743625;82;20162;-87
2022/06/16 02:17:55;;;;;;;4.53;2.40;;;;;;;13.14;100.00;101124.22;1736185;82;21096;-88
2022/06/16 02:20:27;;;;;;;4.10;2.30;;;;;;;13.17;100.00;101122.19;1720925;83;21800;-87
2022/06/16 02:22:57;;;;;;;2.50;2.30;;;;;;;13.23;100.00;101123.47;1743825;82;20987;-87
2022/06/16 02:25:25;;;;;;;3.40;2.30;;;;;;;13.31;100.00;101125.01;1790988;80;21397;-87
2022/06/16 02:27:54;;;;;;;3.02;2.40;;;;;;;13.37;100.00;101128.47;1748465;81;21088;-87
2022/06/16 02:30:26;;;;;;;4.25;2.40;;;;;;;13.46;100.00;101131.34;1791038;80;21014;-86
2022/06/16 02:33:11;;;;;;;6.45;2.87;;;;;;;13.51;100.00;101136.55;1785679;80;21179;-89
2022/06/16 02:35:44;;;;;;;3.17;2.58;;;;;;;13.54;100.00;101125.84;1786995;79;20935;-87
2022/06/16 02:38:38;;;;;;;3.00;2.25;;;;;;;13.59;100.00;101135.09;1786205;80;21171;-88
2022/06/16 02:41:34;;;;;;;2.40;2.17;;;;;;;13.63;100.00;101128.19;1714094;83;21014;-87
2022/06/16 02:44:27;;;;;;;3.80;2.30;;;;;;;13.72;100.00;101134.00;1744798;82;21018;-86
2022/06/16 02:47:44;;;;;;;3.92;2.20;;;;;;;13.81;100.00;101136.38;1716870;82;21282;-87
2022/06/16 02:50:00;;;;;;;2.72;2.08;;;;;;;13.88;100.00;101136.23;1743533;82;21038;-87
2022/06/16 02:52:36;;;;;;;4.62;2.62;;;;;;;13.95;100.00;101135.73;1788649;80;21028;-88
2022/06/16 02:55:18;;;;;;;3.77;2.60;;;;;;;14.04;100.00;101143.66;1745969;81;21038;-88
2022/06/16 02:58:00;;;;;;;3.10;2.30;;;;;;;14.14;100.00;101144.22;1788495;80;21010;-88
2022/06/16 03:00:42;;;;;;;2.40;2.20;;;;;;;14.23;100.00;101141.30;1748481;81;21180;-88
2022/06/16 03:03:29;;;;;;;2.65;2.45;;;;;;;14.32;100.00;101138.78;1789144;80;20986;-89
2022/06/16 03:05:59;;;;;;;3.80;2.60;;;;;;;14.41;100.00;101139.80;1718246;83;21006;-88
2022/06/16 03:08:29;;;;;;;2.92;2.37;;;;;;;14.49;100.00;101141.79;1752363;81;21073;-88
2022/06/16 03:10:59;;;;;;;3.47;2.50;;;;;;;14.55;100.00;101147.82;1708353;82;21223;-87
2022/06/16 03:13:31;;;;;;;2.80;2.37;;;;;;;14.61;100.00;101153.03;1718383;83;21143;-89
2022/06/16 03:16:02;;;;;;;6.60;2.37;;;;;;;14.64;100.00;101149.67;1707874;82;21053;-87
2022/06/16 03:18:33;;;;;;;6.03;2.80;;;;;;;14.69;100.00;101146.70;1702601;83;21028;-86
2022/06/16 03:21:01;;;;;;;2.83;2.58;;;;;;;14.76;100.00;101151.77;1715423;82;21082;-87
2022/06/16 03:23:30;;;;;;;2.40;2.20;;;;;;;14.80;100.00;101149.72;1752013;81;20997;-87
2022/06/16 03:26:00;;;;;;;4.12;2.60;;;;;;;14.85;100.00;101148.02;1737667;81;21164;-87
2022/06/16 03:28:27;;;;;;;4.55;2.45;;;;;;;14.89;100.00;101144.16;1779168;80;21479;-87
2022/06/16 03:30:55;;;;;;;3.40;2.58;;;;;;;14.96;100.00;101142.67;1773536;80;21030;-87
2022/06/16 03:33:22;;;;;;;3.83;2.58;;;;;;;15.04;100.00;101144.16;1757728;81;21050;-87
2022/06/16 03:35:51;;;;;;;6.03;2.87;;;;;;;15.11;100.00;101151.03;1754327;81;21047;-87
2022/06/16 03:40:49;;;;;;;3.20;2.60;;;;;;;15.30;100.00;101143.71;1757765;81;21007;-87
2022/06/16 03:43:17;;;;;;;3.42;2.45;;;;;;;15.38;100.00;101147.80;1734239;81;21046;-86
2022/06/16 03:45:44;;;;;;;2.60;2.25;;;;;;;15.38;100.00;101145.68;1757809;81;21555;-88
2022/06/16 03:48:13;;;;;;;3.40;2.50;;;;;;;15.38;100.00;101148.30;1757820;81;21019;-88
2022/06/16 03:50:42;;;;;;;3.72;2.70;;;;;;;15.41;100.00;101147.55;1757789;81;21110;-87
2022/06/16 03:53:10;;;;;;;3.12;2.50;;;;;;;15.51;100.00;101141.00;1757678;81;21172;-88
2022/06/16 03:55:41;;;;;;;3.40;2.67;;;;;;;15.60;100.00;101140.20;1756461;79;21010;-87
2022/06/16 03:58:10;;;;;;;4.00;2.45;;;;;;;15.68;100.00;101142.63;1753498;81;21058;-87
2022/06/16 04:00:38;;;;;;;4.20;2.60;;;;;;;15.76;100.00;101144.91;1741301;81;20956;-87
2022/06/16 04:05:55;;;;;;;4.50;2.75;;;;;;;16.00;100.00;101146.83;1752739;81;21047;-87
2022/06/16 04:08:25;;;;;;;4.10;2.80;;;;;;;16.09;100.00;101142.88;1721794;81;21062;-87
2022/06/16 04:10:55;;;;;;;3.50;2.80;;;;;;;16.15;100.00;101150.70;1782632;79;21231;-87
2022/06/16 04:13:24;;;;;;;4.65;2.90;;;;;;;16.21;100.00;101148.01;1799587;78;21029;-86
2022/06/16 04:15:54;;;;;;;4.45;2.40;;;;;;;16.28;100.00;101144.31;1795050;78;21209;-87
2022/06/16 04:18:22;;;;;;;3.92;2.80;;;;;;;16.35;100.00;101141.47;1799520;79;21523;-87
2022/06/16 04:20:50;;;;;;;4.60;2.50;;;;;;;16.39;100.00;101145.49;1799471;79;21513;-88
2022/06/16 04:23:20;;;;;;;3.45;2.52;;;;;;;16.46;100.00;101148.39;1760086;79;21052;-86
2022/06/16 04:25:48;;;;;;;3.08;2.60;;;;;;;16.54;100.00;101142.77;1799389;78;21009;-87
2022/06/16 04:28:20;;;;;;;5.25;2.70;;;;;;;16.64;100.00;101150.62;1795368;79;21284;-86
2022/06/16 04:30:50;;;;;;;7.25;2.72;;;;;;;16.75;100.00;101144.86;1799429;79;21045;-86
2022/06/16 04:33:19;;;;;;;9.15;2.98;;;;;;;16.82;100.00;101148.57;1795320;78;21622;-88
2022/06/16 04:35:47;;;;;;;7.25;2.33;;;;;;;16.90;100.00;101147.37;1799741;78;21001;-86
2022/06/16 04:38:16;;;;;;;4.97;2.50;;;;;;;17.02;100.00;101145.41;1799481;78;22152;-87
2022/06/16 04:40:43;;;;;;;2.45;2.25;;;;;;;17.12;100.00;101146.21;1732834;82;21802;-87
2022/06/16 04:43:15;;;;;;;6.72;2.80;;;;;;;17.25;100.00;101144.56;1762200;81;21022;-87
2022/06/16 04:45:42;;;;;;;3.12;2.37;;;;;;;17.38;100.00;101140.27;1733946;81;21087;-87
2022/06/16 04:48:11;;;;;;;4.45;2.90;;;;;;;17.45;100.00;101140.02;1766363;81;21503;-86
2022/06/16 04:50:41;;;;;;;3.98;2.92;;;;;;;17.53;100.00;101147.66;1731545;82;21463;-86
2022/06/16 04:53:10;;;;;;;3.95;2.50;;;;;;;17.57;100.00;101143.27;1762014;81;21852;-86
2022/06/16 04:55:39;;;;;;;5.67;2.95;;;;;;;17.63;100.00;101141.35;1730736;81;20929;-87
2022/06/16 04:58:10;;;;;;;5.08;2.50;;;;;;;17.72;100.00;101143.56;1757985;81;21013;-87
2022/06/16 05:00:51;;;;;;;6.92;2.90;;;;;;;17.82;100.00;101144.84;1730432;82;20996;-87
2022/06/16 05:03:29;;;;;;;4.42;2.62;;;;;;;17.91;100.00;101145.73;1762256;81;21472;-86
2022/06/16 05:05:58;;;;;;;7.35;3.45;;;;;;;17.99;100.00;101147.66;1729941;82;21093;-86
2022/06/16 05:08:30;;;;;;;4.80;3.45;;;;;;;18.03;100.00;101148.48;1762695;81;21108;-86
2022/06/16 05:11:11;;;;;;;6.15;3.20;;;;;;;18.09;100.00;101145.27;1725984;81;21009;-88
2022/06/16 05:13:40;;;;;;;3.60;2.92;;;;;;;18.18;100.00;101152.74;1721200;83;21078;-87
2022/06/16 05:16:23;;;;;;;3.45;3.00;;;;;;;18.26;100.00;101144.91;1730269;82;21074;-86
2022/06/16 05:18:55;;;;;;;8.68;3.30;;;;;;;18.38;100.00;101148.63;1725391;82;21364;-86
2022/06/16 05:21:39;;;;;;;3.95;3.20;;;;;;;18.45;100.00;101146.52;1777411;79;21062;-86
2022/06/16 05:24:29;;;;;;;5.80;3.40;;;;;;;18.56;100.00;101148.06;1719720;82;21058;-87
2022/06/16 05:27:17;;;;;;;11.50;3.50;;;;;;;18.65;100.00;101146.80;1716593;82;21548;-87
2022/06/16 05:29:46;;;;;;;4.05;3.40;;;;;;;18.80;100.00;101151.83;1744447;79;21429;-87
2022/06/16 05:32:21;;;;;;;6.78;3.33;;;;;;;18.94;100.00;101149.65;1776194;79;21390;-87
2022/06/16 05:35:08;;;;;;;7.95;4.10;;;;;;;19.05;100.00;101155.47;1786034;79;21058;-86
2022/06/16 05:37:45;;;;;;;10.35;4.37;;;;;;;19.19;100.00;101148.75;1788865;79;21030;-87
2022/06/16 05:40:31;;;;;;;7.03;3.60;;;;;;;19.29;100.00;101153.08;1743590;81;21042;-86
2022/06/16 05:42:58;;;;;;;4.47;3.33;;;;;;;19.37;100.00;101156.59;1726240;81;21003;-87
2022/06/16 05:45:45;;;;;;;6.22;2.98;;;;;;;19.42;100.00;101153.47;1786087;79;21237;-88
2022/06/16 05:48:27;;;;;;;3.58;3.12;;;;;;;19.48;100.00;101158.58;1728383;82;20998;-86
2022/06/16 05:50:58;;;;;;;10.90;8.80;;;;;;;19.56;100.00;101161.23;1729520;81;21064;-86
2022/06/16 05:53:25;;;;;;;5.50;4.62;;;;;;;19.64;100.00;101152.02;1727207;82;21030;-87
2022/06/16 05:55:53;;;;;;;4.62;3.70;;;;;;;19.73;100.00;101158.16;1732294;82;21599;-85
2022/06/16 05:58:21;;;;;;;4.62;3.20;;;;;;;19.89;100.00;101156.56;1732050;82;21110;-85
2022/06/16 06:00:54;;;;;;;3.27;2.98;;;;;;;20.06;100.00;101161.34;1751883;81;20998;-86
2022/06/16 06:03:23;;;;;;;3.60;2.77;;;;;;;20.19;100.00;101155.06;1709250;82;21076;-87
2022/06/16 06:05:51;;;;;;;4.45;2.87;;;;;;;20.31;100.00;101155.07;1734867;81;21606;-87
2022/06/16 06:16:42;;;;;;;8.55;3.45;;;;;;;20.63;100.00;101161.82;1782747;79;21023;-86
2022/06/16 06:19:31;;;;;;;8.85;3.30;;;;;;;20.68;100.00;101162.13;1778785;79;20979;-86
2022/06/16 06:22:17;;;;;;;4.17;2.90;;;;;;;20.74;100.00;101165.44;1786985;79;21062;-87
2022/06/16 06:24:48;;;;;;;5.37;4.10;;;;;;;20.85;100.00;101163.44;1779553;80;21818;-86
2022/06/16 06:27:31;;;;;;;6.00;3.67;;;;;;;20.98;100.00;101166.37;1780760;79;21010;-87
2022/06/16 06:30:01;;;;;;;5.87;3.65;;;;;;;21.06;100.00;101162.37;1780320;80;21489;-86
2022/06/16 06:32:29;;;;;;;5.03;3.40;;;;;;;21.11;100.00;101169.28;1781804;80;20960;-86
2022/06/16 06:34:58;;;;;;;4.80;2.90;;;;;;;21.16;100.00;101168.77;1781956;80;21064;-86
2022/06/16 06:37:27;;;;;;;4.10;3.10;;;;;;;21.26;100.00;101168.59;1781653;79;21770;-85
2022/06/16 06:39:55;;;;;;;5.22;4.45;;;;;;;21.36;100.00;101169.18;1781968;79;21030;-86
2022/06/16 06:42:22;;;;;;;5.58;2.72;;;;;;;21.44;100.00;101170.46;1781473;79;21030;-86
2022/06/16 06:44:50;;;;;;;3.52;2.75;;;;;;;21.56;100.00;101168.76;1782207;79;20943;-87
2022/06/16 06:47:27;;;;;;;7.75;2.95;;;;;;;21.69;100.00;101165.05;1781800;79;21017;-86
2022/06/16 06:49:56;;;;;;;5.62;2.33;;;;;;;21.78;100.00;101159.70;1781474;80;21798;-86
2022/06/16 06:52:24;;;;;;;4.22;2.30;;;;;;;21.85;100.00;101166.78;1781260;79;21532;-87
2022/06/16 06:54:53;;;;;;;3.77;2.37;;;;;;;21.91;100.00;101163.93;1780963;79;21045;-86
2022/06/16 06:57:25;;;;;;;2.40;2.20;;;;;;;21.95;100.00;101167.05;1790271;79;21003;-86
2022/06/16 06:59:53;;;;;;;2.85;2.50;;;;;;;22.00;100.00;101166.82;1808447;79;21306;-86
2022/06/16 07:02:21;;;;;;;4.72;2.42;;;;;;;22.04;100.00;101167.29;1808448;79;21216;-85
2022/06/16 07:04:48;;;;;;;2.58;2.30;;;;;;;22.09;100.00;101160.97;1808607;79;20944;-85
2022/06/16 07:07:20;;;;;;;6.20;2.30;;;;;;;22.12;99.15;101162.44;1808540;79;21010;-86
2022/06/16 07:09:50;;;;;;;2.52;2.33;;;;;;;22.14;100.00;101163.90;1769199;80;20995;-86
2022/06/16 07:12:17;;;;;;;5.25;2.40;;;;;;;22.18;100.00;101170.52;1801852;79;21059;-86
2022/06/16 07:14:50;;;;;;;6.10;2.37;;;;;;;22.23;100.00;101166.00;1772956;79;21508;-86
2022/06/16 07:17:21;;;;;;;4.60;2.37;;;;;;;22.24;100.00;101160.98;1771005;80;20943;-86
2022/06/16 07:19:50;;;;;;;2.50;2.30;;;;;;;22.30;97.96;101158.13;1770612;81;20991;-85
2022/06/16 07:22:18;;;;;;;4.70;2.20;;;;;;;22.36;100.00;101157.40;1771760;79;21073;-87
2022/06/16 07:24:48;;;;;;;2.27;2.08;;;;;;;22.46;100.00;101158.52;1783100;79;21006;-86
2022/06/16 07:27:18;;;;;;;6.97;2.10;;;;;;;22.46;85.58;101160.66;1783818;79;21094;-88
2022/06/16 07:29:49;;;;;;;2.35;2.15;;;;;;;22.45;100.00;101155.03;1782776;79;21030;-86
2022/06/16 07:32:15;;;;;;;2.00;1.90;;;;;;;22.49;90.48;101152.83;1785463;79;20995;-87
2022/06/16 07:34:44;;;;;;;3.00;2.20;;;;;;;22.58;93.74;101152.27;1782532;79;20995;-85
2022/06/16 07:37:12;;;;;;;4.80;2.20;;;;;;;22.68;100.00;101154.97;1777421;79;21085;-87
2022/06/16 07:39:39;;;;;;;3.87;2.10;;;;;;;22.80;100.00;101159.80;1716451;81;21118;-90
2022/06/16 07:42:08;;;;;;;2.75;2.15;;;;;;;22.82;80.94;101153.81;1723748;81;21115;-86
2022/06/16 07:44:37;;;;;;;3.67;2.02;;;;;;;22.89;87.93;101158.70;1779426;79;21495;-86
2022/06/16 07:47:06;;;;;;;2.80;2.10;;;;;;;23.04;85.85;101156.05;1784385;79;21515;-86
2022/06/16 07:49:34;;;;;;;2.83;1.90;;;;;;;23.14;87.71;101153.09;1728616;82;21093;-86
2022/06/16 07:52:01;;;;;;;1.92;1.82;;;;;;;23.19;88.16;101153.91;1728482;82;21774;-85
2022/06/16 07:54:29;;;;;;;4.12;2.30;;;;;;;23.15;75.92;101160.06;1731683;81;21037;-85
2022/06/16 07:56:57;;;;;;;4.47;1.95;;;;;;;23.07;84.06;101164.15;1782941;79;21005;-85
2022/06/16 07:59:25;;;;;;;1.98;1.87;;;;;;;23.08;75.81;101159.16;1786360;79;20986;-86
2022/06/16 08:01:54;;;;;;;2.22;1.60;;;;;;;23.10;72.29;101158.48;1778712;79;21756;-85
2022/06/16 08:04:24;;;;;;;2.10;1.90;;;;;;;23.18;72.35;101164.20;1781872;79;21042;-86
2022/06/16 08:06:51;;;;;;;2.02;1.82;;;;;;;23.21;66.50;101161.19;1785397;79;20986;-86
2022/06/16 08:09:19;;;;;;;2.98;2.05;;;;;;;23.13;68.05;101164.73;1788800;79;21046;-86
2022/06/16 08:12:07;;;;;;;3.02;1.80;;;;;;;23.07;71.51;101164.98;1786861;79;21061;-86
2022/06/16 08:14:39;;;;;;;2.42;2.22;;;;;;;23.09;75.36;101159.48;1801206;78;21041;-86
2022/06/16 08:17:11;;;;;;;2.02;1.90;;;;;;;23.31;83.42;101165.72;1794148;79;21240;-87
2022/06/16 08:19:39;;;;;;;2.40;1.87;;;;;;;23.52;83.11;101164.09;1794120;79;21408;-87
2022/06/16 08:22:07;;;;;;;3.40;2.10;;;;;;;23.65;69.47;101165.55;1800383;79;21469;-86
2022/06/16 08:24:34;;;;;;;2.33;2.12;;;;;;;23.75;66.73;101167.92;1792077;79;21018;-87
2022/06/16 08:27:03;;;;;;;2.42;2.20;;;;;;;23.67;69.21;101164.05;1785539;80;21026;-86
2022/06/16 08:29:32;;;;;;;2.30;1.70;;;;;;;23.39;75.69;101163.44;1785741;80;21895;-86
2022/06/16 08:32:00;;;;;;;4.10;2.10;;;;;;;23.08;79.08;101159.97;1799498;79;21124;-91
2022/06/16 08:34:27;;;;;;;2.15;1.95;;;;;;;22.99;72.51;101171.20;1735111;82;21076;-90
2022/06/16 08:36:56;;;;;;;2.65;1.82;;;;;;;23.11;72.70;101162.78;1713556;82;21493;-88
2022/06/16 08:39:23;;;;;;;2.30;2.00;;;;;;;23.29;69.49;101156.58;1720184;81;21079;-86
2022/06/16 08:42:03;;;;;;;2.12;1.90;;;;;;;23.53;68.48;101154.59;1736242;81;21439;-86
2022/06/16 08:44:38;;;;;;;3.72;1.95;;;;;;;23.78;73.35;101159.55;1733633;82;21043;-86
2022/06/16 08:47:36;;;;;;;2.27;1.70;;;;;;;23.75;62.79;101166.07;1708089;82;21037;-87
2022/06/16 08:50:22;;;;;;;2.90;2.12;;;;;;;23.64;65.85;101166.56;1761164;81;21045;-87
2022/06/16 08:53:33;;;;;;;2.95;2.20;;;;;;;23.60;75.77;101167.44;1749184;81;21054;-86
2022/06/16 08:56:05;;;;;;;2.30;2.10;;;;;;;23.63;77.93;101167.08;1734900;82;21179;-86
2022/06/16 08:58:47;;;;;;;4.30;2.20;;;;;;;23.67;89.11;101165.38;1730292;81;21037;-86
2022/06/16 09:01:25;;;;;;;1.70;1.60;;;;;;;23.77;75.08;101167.20;1757771;81;21013;-87
2022/06/16 09:04:11;;;;;;;1.92;1.77;;;;;;;23.96;67.81;101160.97;1734818;81;21032;-87
2022/06/16 09:06:59;;;;;;;2.75;2.02;;;;;;;24.07;64.74;101163.13;1762165;81;21045;-89
2022/06/16 09:12:55;;;;;;;2.60;2.07;;;;;;;23.58;67.65;101160.19;1727610;81;21501;-87
2022/06/16 09:16:04;;;;;;;2.77;1.55;;;;;;;23.02;71.34;101161.23;1722677;81;21101;-91
2022/06/16 09:19:09;;;;;;;2.27;2.08;;;;;;;22.53;80.08;101158.11;1727257;82;21038;-88
2022/06/16 09:22:14;;;;;;;2.45;2.12;;;;;;;22.16;80.89;101156.59;1721821;82;21050;-86
2022/06/16 09:25:18;;;;;;;2.08;1.77;;;;;;;22.17;86.85;101153.43;1726300;81;21159;-86
2022/06/16 09:27:56;;;;;;;2.52;1.80;;;;;;;22.59;81.22;101142.78;1714133;82;21039;-87
2022/06/16 09:30:30;;;;;;;4.33;2.20;;;;;;;23.16;74.30;101151.91;1720140;82;22181;-86
2022/06/16 09:33:08;;;;;;;3.55;2.00;;;;;;;23.51;75.60;101143.35;1715765;83;21055;-86
2022/06/16 09:35:45;;;;;;;2.72;1.90;;;;;;;23.82;69.19;101142.22;1691928;83;21096;-85
2022/06/16 09:38:36;;;;;;;2.42;1.67;;;;;;;24.05;68.84;101149.19;1713469;81;21275;-86
2022/06/16 09:44:22;;;;;;;3.25;1.72;;;;;;;24.31;67.33;101151.23;1701034;83;21654;-88
2022/06/16 09:46:55;;;;;;;2.80;1.70;;;;;;;24.40;69.11;101147.91;1717349;83;21086;-86
2022/06/16 09:49:57;;;;;;;2.65;2.02;;;;;;;24.41;67.58;101146.89;1728152;81;21056;-87
2022/06/16 09:52:30;;;;;;;3.40;1.95;;;;;;;24.12;65.77;101147.41;1724525;82;21155;-87
2022/06/16 09:55:02;;;;;;;2.17;1.85;;;;;;;23.49;65.81;101153.34;1711409;81;21109;-90
2022/06/16 09:57:38;;;;;;;2.67;1.72;;;;;;;23.16;75.24;101151.09;1721714;82;21038;-88
2022/06/16 10:00:16;;;;;;;1.90;1.67;;;;;;;23.00;69.27;101147.63;1720485;82;21090;-86
2022/06/16 10:02:55;;;;;;;2.60;1.70;;;;;;;23.06;76.80;101146.08;1723304;81;21540;-88
2022/06/16 10:05:50;;;;;;;1.98;1.70;;;;;;;23.39;71.01;101142.18;1715500;82;21931;-86
2022/06/16 10:08:30;;;;;;;2.40;1.80;;;;;;;23.74;64.86;101138.36;1721125;82;21047;-87
2022/06/16 10:11:13;;;;;;;1.80;1.67;;;;;;;24.10;65.99;101140.12;1732479;82;21007;-86
2022/06/16 10:14:16;;;;;;;3.95;1.60;;;;;;;24.41;67.64;101141.56;1731395;82;21078;-86
2022/06/16 10:16:46;;;;;;;;;;;;;;;24.68;66.56;101139.91;1713948;82;21112;-87
2022/06/16 10:19:13;;;;;;;1.47;1.37;;;;;;;24.96;65.07;101138.20;1735145;81;21200;-86
2022/06/16 10:21:42;;;;;;;3.02;1.60;;;;;;;25.13;56.93;101132.84;1716797;82;21007;-86
2022/06/16 10:24:09;;;;;;;1.50;1.40;;;;;;;25.32;59.38;101133.12;1724195;82;21041;-86
2022/06/16 10:26:37;;;;;;;2.55;1.80;;;;;;;25.54;54.06;101132.48;1720381;82;21049;-86
2022/06/16 10:29:29;;;;;;;2.25;1.70;;;;;;;25.65;56.41;101132.40;1723320;81;21070;-87
2022/06/16 10:31:58;;;;;;;1.70;1.60;;;;;;;25.42;65.24;101138.92;1711813;82;21554;-86
2022/06/16 10:34:34;;;;;;;2.20;1.65;;;;;;;25.06;60.49;101132.53;1778855;80;21646;-85
2022/06/16 10:37:24;;;;;;;2.55;1.85;;;;;;;24.83;61.72;101128.34;1777067;80;21522;-86
2022/06/16 10:40:01;;;;;;;1.57;1.47;;;;;;;24.61;56.25;101133.70;1773729;80;21020;-86
2022/06/16 10:42:42;;;;;;;3.98;1.77;;;;;;;24.30;52.73;101133.61;1769071;80;21051;-86
2022/06/16 10:45:24;;;;;;;2.60;1.90;;;;;;;24.07;54.66;101130.69;1704369;81;21124;-86
2022/06/16 10:48:02;;;;;;;1.67;1.57;;;;;;;23.89;62.10;101132.95;1701188;82;21064;-90
2022/06/16 10:50:37;;;;;;;1.92;1.60;;;;;;;23.73;65.85;101126.08;1771170;80;20966;-87
2022/06/16 10:53:17;;;;;;;1.45;1.10;;;;;;;23.91;69.19;101122.95;1711133;82;21065;-87
2022/06/16 10:55:47;;;;;;;1.50;1.27;;;;;;;24.28;59.20;101118.87;1731121;82;21716;-86
2022/06/16 10:58:24;;;;;;;3.00;1.50;;;;;;;24.66;61.43;101120.64;1697922;83;21297;-86
2022/06/16 11:01:06;;;;;;;1.32;1.30;;;;;;;24.85;50.45;101118.28;1692086;84;21095;-86
2022/06/16 11:03:38;;;;;;;1.77;1.30;;;;;;;24.79;59.00;101119.09;1726913;82;21098;-87
2022/06/16 11:06:07;;;;;;;1.98;1.67;;;;;;;24.65;53.96;101120.83;1727451;82;20964;-88
2022/06/16 11:08:38;;;;;;;1.72;1.30;;;;;;;24.71;57.50;101122.75;1724520;82;21519;-87
2022/06/16 11:11:06;;;;;;;;;;;;;;;24.91;58.87;101112.19;1699733;83;21146;-86
2022/06/16 11:13:38;;;;;;;1.92;1.72;;;;;;;25.12;55.40;101113.08;1714578;82;20448;-87
2022/06/16 11:16:12;;;;;;;1.80;1.50;;;;;;;25.27;52.68;101115.59;1748563;81;21057;-87
2022/06/16 11:18:41;;;;;;;1.95;1.70;;;;;;;25.35;48.01;101116.22;1729905;81;21060;-87
2022/06/16 11:21:23;;;;;;;2.02;1.60;;;;;;;25.47;51.49;101115.66;1795204;79;21023;-87
2022/06/16 11:23:55;;;;;;;1.92;1.60;;;;;;;25.60;52.53;101113.53;1725327;81;21902;-88
2022/06/16 11:26:36;;;;;;;2.47;1.80;;;;;;;25.56;55.38;101113.61;1724165;81;21042;-87
2022/06/16 11:29:23;;;;;;;2.17;1.60;;;;;;;25.35;54.73;101118.87;1741946;81;21053;-87
2022/06/16 11:32:12;;;;;;;2.00;1.40;;;;;;;24.97;52.09;101114.05;1796647;79;20987;-87
2022/06/16 11:34:42;;;;;;;1.85;1.62;;;;;;;24.58;56.25;101114.15;1779642;78;21721;-88
2022/06/16 11:37:39;;;;;;;1.67;1.57;;;;;;;24.36;60.17;101118.20;1735921;81;21128;-92
2022/06/16 11:40:26;;;;;;;2.02;1.85;;;;;;;24.47;59.33;101120.85;1708887;81;21540;-86
2022/06/16 11:43:08;;;;;;;4.55;1.70;;;;;;;24.68;52.49;101121.28;1788118;79;21002;-87
2022/06/16 11:46:00;;;;;;;;;;;;;;;24.86;52.83;101112.78;1793437;79;21003;-87
2022/06/16 11:48:32;;;;;;;;;;;;;;;25.19;57.92;101112.58;1794631;79;20166;-87
2022/06/16 11:51:27;;;;;;;2.30;1.50;;;;;;;25.50;55.58;101116.08;1788082;79;21165;-87
2022/06/16 11:54:29;;;;;;;3.35;1.17;;;;;;;25.73;51.73;101109.54;1793914;79;21051;-87
2022/06/16 11:57:23;;;;;;;4.55;1.70;;;;;;;25.83;50.72;101110.45;1789933;79;21010;-87
2022/06/16 12:00:06;;;;;;;1.50;1.40;;;;;;;25.95;53.82;101111.50;1785043;80;21038;-87
2022/06/16 12:02:50;;;;;;;1.60;1.35;;;;;;;26.10;47.15;101105.95;1783288;80;20992;-88
2022/06/16 12:05:44;;;;;;;1.50;1.40;;;;;;;26.32;47.29;101100.38;1806021;79;21212;-87
2022/06/16 12:08:28;;;;;;;1.40;1.30;;;;;;;26.38;47.94;101106.23;1801136;79;21010;-87
2022/06/16 12:11:10;;;;;;;4.42;1.45;;;;;;;26.07;52.52;101100.19;1783226;80;21010;-87
2022/06/16 12:14:05;;;;;;;1.35;1.25;;;;;;;25.98;51.51;101098.25;1804861;79;21492;-87
2022/06/16 12:16:59;;;;;;;1.40;1.30;;;;;;;25.83;46.97;101094.45;1781224;80;21069;-87
2022/06/16 12:19:32;;;;;;;2.98;1.65;;;;;;;25.62;50.25;101096.30;1793771;79;21170;-87
2022/06/16 12:22:17;;;;;;;1.65;1.40;;;;;;;25.39;50.50;101108.66;1783759;80;21047;-86
2022/06/16 12:25:02;;;;;;;1.50;1.40;;;;;;;25.11;53.09;101110.09;1791892;78;21018;-88
2022/06/16 12:27:53;;;;;;;2.65;1.37;;;;;;;24.83;50.85;101111.03;1797427;79;21092;-86
2022/06/16 12:30:40;;;;;;;;;;;;;;;24.57;48.88;101107.98;1797702;79;21032;-89